sensor_id;sensor_type;location;lat;lon;timestamp;P1;durP1;ratioP1;P2;durP2;ratioP2
46613;SDS011;32338;50.430;6.806;2022-08-19T00:01:33;7.57;;;6.95;;
46613;SDS011;32338;50.430;6.806;2022-08-19T00:04:03;8.10;;;7.40;;
46613;SDS011;32338;50.430;6.806;2022-08-19T00:06:31;7.97;;;7.28;;
46613;SDS011;32338;50.430;6.806;2022-08-19T00:09:00;9.70;;;7.80;;
46613;SDS011;32338;50.430;6.806;2022-08-19T00:11:27;10.48;;;7.97;;
46613;SDS011;32338;50.430;6.806;2022-08-19T00:13:54;7.47;;;6.75;;
46613;SDS011;32338;50.430;6.806;2022-08-19T00:16:21;7.32;;;6.82;;
46613;SDS011;32338;50.430;6.806;2022-08-19T00:18:51;7.90;;;7.30;;
46613;SDS011;32338;50.430;6.806;2022-08-19T00:21:18;8.73;;;8.13;;
46613;SDS011;32338;50.430;6.806;2022-08-19T00:23:45;10.85;;;9.10;;
46613;SDS011;32338;50.430;6.806;2022-08-19T00:26:11;9.32;;;8.30;;
46613;SDS011;32338;50.430;6.806;2022-08-19T00:28:38;9.20;;;8.25;;
46613;SDS011;32338;50.430;6.806;2022-08-19T00:31:05;8.77;;;8.07;;
46613;SDS011;32338;50.430;6.806;2022-08-19T00:33:33;8.50;;;7.75;;
46613;SDS011;32338;50.430;6.806;2022-08-19T00:36:02;8.65;;;8.00;;
46613;SDS011;32338;50.430;6.806;2022-08-19T00:38:31;8.20;;;7.70;;
46613;SDS011;32338;50.430;6.806;2022-08-19T00:40:58;8.82;;;8.07;;
46613;SDS011;32338;50.430;6.806;2022-08-19T00:43:25;9.02;;;8.10;;
46613;SDS011;32338;50.430;6.806;2022-08-19T00:45:53;7.03;;;6.53;;
46613;SDS011;32338;50.430;6.806;2022-08-19T00:48:20;7.68;;;7.07;;
46613;SDS011;32338;50.430;6.806;2022-08-19T00:50:49;8.73;;;7.93;;
46613;SDS011;32338;50.430;6.806;2022-08-19T00:53:20;9.05;;;8.35;;
46613;SDS011;32338;50.430;6.806;2022-08-19T00:55:51;8.32;;;7.43;;
46613;SDS011;32338;50.430;6.806;2022-08-19T00:58:21;8.90;;;7.78;;
46613;SDS011;32338;50.430;6.806;2022-08-19T01:00:50;8.35;;;7.60;;
46613;SDS011;32338;50.430;6.806;2022-08-19T01:03:18;9.55;;;8.65;;
46613;SDS011;32338;50.430;6.806;2022-08-19T01:05:47;9.30;;;8.50;;
46613;SDS011;32338;50.430;6.806;2022-08-19T01:08:17;8.00;;;7.35;;
46613;SDS011;32338;50.430;6.806;2022-08-19T01:10:47;8.93;;;8.20;;
46613;SDS011;32338;50.430;6.806;2022-08-19T01:13:16;8.65;;;7.78;;
46613;SDS011;32338;50.430;6.806;2022-08-19T01:15:46;8.15;;;7.60;;
46613;SDS011;32338;50.430;6.806;2022-08-19T01:18:16;9.40;;;8.32;;
46613;SDS011;32338;50.430;6.806;2022-08-19T01:20:45;9.30;;;8.32;;
46613;SDS011;32338;50.430;6.806;2022-08-19T01:23:13;10.00;;;9.18;;
46613;SDS011;32338;50.430;6.806;2022-08-19T01:25:42;10.65;;;7.82;;
46613;SDS011;32338;50.430;6.806;2022-08-19T01:28:14;9.30;;;8.40;;
46613;SDS011;32338;50.430;6.806;2022-08-19T01:30:43;9.05;;;7.50;;
46613;SDS011;32338;50.430;6.806;2022-08-19T01:33:11;8.32;;;7.72;;
46613;SDS011;32338;50.430;6.806;2022-08-19T01:35:39;8.27;;;7.57;;
46613;SDS011;32338;50.430;6.806;2022-08-19T01:38:07;8.60;;;7.90;;
46613;SDS011;32338;50.430;6.806;2022-08-19T01:40:37;8.65;;;7.95;;
46613;SDS011;32338;50.430;6.806;2022-08-19T01:43:07;9.98;;;7.88;;
46613;SDS011;32338;50.430;6.806;2022-08-19T01:45:34;10.68;;;8.52;;
46613;SDS011;32338;50.430;6.806;2022-08-19T01:48:02;8.48;;;7.88;;
46613;SDS011;32338;50.430;6.806;2022-08-19T01:50:30;8.05;;;7.13;;
46613;SDS011;32338;50.430;6.806;2022-08-19T01:52:57;8.27;;;7.47;;
46613;SDS011;32338;50.430;6.806;2022-08-19T01:55:24;8.05;;;7.43;;
46613;SDS011;32338;50.430;6.806;2022-08-19T01:57:53;8.27;;;7.60;;
46613;SDS011;32338;50.430;6.806;2022-08-19T02:00:24;8.23;;;7.63;;
46613;SDS011;32338;50.430;6.806;2022-08-19T02:02:53;8.50;;;7.72;;
46613;SDS011;32338;50.430;6.806;2022-08-19T02:05:20;9.00;;;8.23;;
46613;SDS011;32338;50.430;6.806;2022-08-19T02:07:48;8.25;;;7.35;;
46613;SDS011;32338;50.430;6.806;2022-08-19T02:10:16;8.40;;;7.85;;
46613;SDS011;32338;50.430;6.806;2022-08-19T02:12:44;8.98;;;8.18;;
46613;SDS011;32338;50.430;6.806;2022-08-19T02:15:12;9.70;;;8.70;;
46613;SDS011;32338;50.430;6.806;2022-08-19T02:17:39;9.02;;;8.40;;
46613;SDS011;32338;50.430;6.806;2022-08-19T02:20:06;9.15;;;8.55;;
46613;SDS011;32338;50.430;6.806;2022-08-19T02:22:34;11.43;;;9.60;;
46613;SDS011;32338;50.430;6.806;2022-08-19T02:25:01;9.50;;;8.60;;
46613;SDS011;32338;50.430;6.806;2022-08-19T02:27:29;9.23;;;8.48;;
46613;SDS011;32338;50.430;6.806;2022-08-19T02:29:57;12.02;;;9.82;;
46613;SDS011;32338;50.430;6.806;2022-08-19T02:32:25;9.65;;;8.82;;
46613;SDS011;32338;50.430;6.806;2022-08-19T02:34:52;8.93;;;8.32;;
46613;SDS011;32338;50.430;6.806;2022-08-19T02:37:19;13.15;;;9.18;;
46613;SDS011;32338;50.430;6.806;2022-08-19T02:40:18;8.30;;;7.65;;
46613;SDS011;32338;50.430;6.806;2022-08-19T02:42:45;8.07;;;7.32;;
46613;SDS011;32338;50.430;6.806;2022-08-19T02:45:11;7.82;;;7.32;;
46613;SDS011;32338;50.430;6.806;2022-08-19T02:47:40;7.53;;;6.95;;
46613;SDS011;32338;50.430;6.806;2022-08-19T02:50:08;8.63;;;7.93;;
46613;SDS011;32338;50.430;6.806;2022-08-19T02:52:35;7.97;;;7.35;;
46613;SDS011;32338;50.430;6.806;2022-08-19T02:55:02;8.43;;;7.82;;
46613;SDS011;32338;50.430;6.806;2022-08-19T02:57:29;8.63;;;8.02;;
46613;SDS011;32338;50.430;6.806;2022-08-19T02:59:57;7.85;;;7.35;;
46613;SDS011;32338;50.430;6.806;2022-08-19T03:02:25;8.43;;;7.82;;
46613;SDS011;32338;50.430;6.806;2022-08-19T03:04:53;8.18;;;7.68;;
46613;SDS011;32338;50.430;6.806;2022-08-19T03:07:20;7.65;;;7.05;;
46613;SDS011;32338;50.430;6.806;2022-08-19T03:09:46;8.65;;;8.05;;
46613;SDS011;32338;50.430;6.806;2022-08-19T03:12:13;7.53;;;7.03;;
46613;SDS011;32338;50.430;6.806;2022-08-19T03:14:40;9.07;;;8.38;;
46613;SDS011;32338;50.430;6.806;2022-08-19T03:17:07;9.27;;;8.48;;
46613;SDS011;32338;50.430;6.806;2022-08-19T03:19:33;9.40;;;8.57;;
46613;SDS011;32338;50.430;6.806;2022-08-19T03:22:02;8.77;;;8.18;;
46613;SDS011;32338;50.430;6.806;2022-08-19T03:24:29;8.98;;;8.18;;
46613;SDS011;32338;50.430;6.806;2022-08-19T03:26:56;8.70;;;7.80;;
46613;SDS011;32338;50.430;6.806;2022-08-19T03:29:24;8.25;;;7.57;;
46613;SDS011;32338;50.430;6.806;2022-08-19T03:31:52;9.63;;;8.80;;
46613;SDS011;32338;50.430;6.806;2022-08-19T03:34:20;9.15;;;8.40;;
46613;SDS011;32338;50.430;6.806;2022-08-19T03:36:51;9.02;;;8.32;;
46613;SDS011;32338;50.430;6.806;2022-08-19T03:39:20;10.10;;;9.27;;
46613;SDS011;32338;50.430;6.806;2022-08-19T03:41:47;9.88;;;8.88;;
46613;SDS011;32338;50.430;6.806;2022-08-19T03:44:17;10.25;;;9.25;;
46613;SDS011;32338;50.430;6.806;2022-08-19T03:46:45;9.85;;;9.18;;
46613;SDS011;32338;50.430;6.806;2022-08-19T03:49:13;11.10;;;10.10;;
46613;SDS011;32338;50.430;6.806;2022-08-19T03:51:41;12.43;;;11.27;;
46613;SDS011;32338;50.430;6.806;2022-08-19T03:54:09;8.93;;;8.10;;
46613;SDS011;32338;50.430;6.806;2022-08-19T03:56:39;8.73;;;7.93;;
46613;SDS011;32338;50.430;6.806;2022-08-19T03:59:08;7.82;;;7.15;;
46613;SDS011;32338;50.430;6.806;2022-08-19T04:01:38;7.38;;;6.78;;
46613;SDS011;32338;50.430;6.806;2022-08-19T04:04:05;8.32;;;7.50;;
46613;SDS011;32338;50.430;6.806;2022-08-19T04:06:32;8.75;;;8.10;;
46613;SDS011;32338;50.430;6.806;2022-08-19T04:09:01;8.27;;;7.78;;
46613;SDS011;32338;50.430;6.806;2022-08-19T04:11:30;7.68;;;7.07;;
46613;SDS011;32338;50.430;6.806;2022-08-19T04:14:01;10.15;;;8.10;;
46613;SDS011;32338;50.430;6.806;2022-08-19T04:16:29;7.97;;;7.32;;
46613;SDS011;32338;50.430;6.806;2022-08-19T04:18:56;9.15;;;8.45;;
46613;SDS011;32338;50.430;6.806;2022-08-19T04:21:26;8.48;;;7.68;;
46613;SDS011;32338;50.430;6.806;2022-08-19T04:23:54;8.90;;;8.30;;
46613;SDS011;32338;50.430;6.806;2022-08-19T04:26:23;8.80;;;8.10;;
46613;SDS011;32338;50.430;6.806;2022-08-19T04:28:52;9.35;;;8.63;;
46613;SDS011;32338;50.430;6.806;2022-08-19T04:31:22;9.02;;;8.32;;
46613;SDS011;32338;50.430;6.806;2022-08-19T04:33:51;9.68;;;8.88;;
46613;SDS011;32338;50.430;6.806;2022-08-19T04:36:19;9.88;;;8.95;;
46613;SDS011;32338;50.430;6.806;2022-08-19T04:38:48;10.60;;;8.98;;
46613;SDS011;32338;50.430;6.806;2022-08-19T04:41:16;10.13;;;8.60;;
46613;SDS011;32338;50.430;6.806;2022-08-19T04:44:01;9.20;;;8.52;;
46613;SDS011;32338;50.430;6.806;2022-08-19T04:46:29;9.15;;;8.20;;
46613;SDS011;32338;50.430;6.806;2022-08-19T04:48:56;10.55;;;9.45;;
46613;SDS011;32338;50.430;6.806;2022-08-19T04:51:23;10.15;;;9.35;;
46613;SDS011;32338;50.430;6.806;2022-08-19T04:53:50;9.80;;;8.65;;
46613;SDS011;32338;50.430;6.806;2022-08-19T04:56:17;11.35;;;10.25;;
46613;SDS011;32338;50.430;6.806;2022-08-19T04:58:46;10.13;;;9.13;;
46613;SDS011;32338;50.430;6.806;2022-08-19T05:01:13;10.55;;;9.68;;
46613;SDS011;32338;50.430;6.806;2022-08-19T05:03:44;10.95;;;9.95;;
46613;SDS011;32338;50.430;6.806;2022-08-19T05:06:12;11.15;;;10.25;;
46613;SDS011;32338;50.430;6.806;2022-08-19T05:08:40;11.18;;;10.07;;
46613;SDS011;32338;50.430;6.806;2022-08-19T05:11:08;8.88;;;8.27;;
46613;SDS011;32338;50.430;6.806;2022-08-19T05:13:37;9.63;;;8.90;;
46613;SDS011;32338;50.430;6.806;2022-08-19T05:16:04;11.63;;;10.57;;
46613;SDS011;32338;50.430;6.806;2022-08-19T05:18:31;11.65;;;10.55;;
46613;SDS011;32338;50.430;6.806;2022-08-19T05:21:18;13.10;;;11.90;;
46613;SDS011;32338;50.430;6.806;2022-08-19T05:24:03;12.50;;;11.50;;
46613;SDS011;32338;50.430;6.806;2022-08-19T05:26:34;11.98;;;10.95;;
46613;SDS011;32338;50.430;6.806;2022-08-19T05:29:01;12.43;;;11.43;;
46613;SDS011;32338;50.430;6.806;2022-08-19T05:31:28;12.95;;;10.18;;
46613;SDS011;32338;50.430;6.806;2022-08-19T05:33:55;12.02;;;10.90;;
46613;SDS011;32338;50.430;6.806;2022-08-19T05:36:24;11.25;;;10.25;;
46613;SDS011;32338;50.430;6.806;2022-08-19T05:38:51;10.43;;;9.38;;
46613;SDS011;32338;50.430;6.806;2022-08-19T05:41:19;11.88;;;10.20;;
46613;SDS011;32338;50.430;6.806;2022-08-19T05:43:48;12.20;;;11.20;;
46613;SDS011;32338;50.430;6.806;2022-08-19T05:46:16;11.88;;;10.10;;
46613;SDS011;32338;50.430;6.806;2022-08-19T05:48:44;14.23;;;10.00;;
46613;SDS011;32338;50.430;6.806;2022-08-19T05:51:11;10.93;;;10.13;;
46613;SDS011;32338;50.430;6.806;2022-08-19T05:53:39;11.15;;;10.35;;
46613;SDS011;32338;50.430;6.806;2022-08-19T05:56:06;12.57;;;11.45;;
46613;SDS011;32338;50.430;6.806;2022-08-19T05:58:34;11.98;;;10.82;;
46613;SDS011;32338;50.430;6.806;2022-08-19T06:01:02;11.50;;;10.57;;
46613;SDS011;32338;50.430;6.806;2022-08-19T06:03:31;11.68;;;10.73;;
46613;SDS011;32338;50.430;6.806;2022-08-19T06:05:59;13.02;;;11.80;;
46613;SDS011;32338;50.430;6.806;2022-08-19T06:08:27;13.10;;;11.80;;
46613;SDS011;32338;50.430;6.806;2022-08-19T06:10:56;19.35;;;16.38;;
46613;SDS011;32338;50.430;6.806;2022-08-19T06:13:22;16.25;;;14.65;;
46613;SDS011;32338;50.430;6.806;2022-08-19T06:15:50;14.50;;;13.32;;
46613;SDS011;32338;50.430;6.806;2022-08-19T06:18:17;16.05;;;14.02;;
46613;SDS011;32338;50.430;6.806;2022-08-19T06:20:44;17.85;;;16.05;;
46613;SDS011;32338;50.430;6.806;2022-08-19T06:23:11;21.63;;;19.35;;
46613;SDS011;32338;50.430;6.806;2022-08-19T06:25:38;26.08;;;20.38;;
46613;SDS011;32338;50.430;6.806;2022-08-19T06:28:06;30.42;;;23.88;;
46613;SDS011;32338;50.430;6.806;2022-08-19T06:30:33;44.25;;;30.48;;
46613;SDS011;32338;50.430;6.806;2022-08-19T06:32:59;60.33;;;39.63;;
46613;SDS011;32338;50.430;6.806;2022-08-19T06:35:26;39.92;;;30.10;;
46613;SDS011;32338;50.430;6.806;2022-08-19T06:37:54;50.83;;;33.17;;
46613;SDS011;32338;50.430;6.806;2022-08-19T06:40:21;80.75;;;46.22;;
46613;SDS011;32338;50.430;6.806;2022-08-19T06:42:48;78.45;;;44.15;;
46613;SDS011;32338;50.430;6.806;2022-08-19T06:45:16;74.90;;;43.42;;
46613;SDS011;32338;50.430;6.806;2022-08-19T06:47:43;69.93;;;40.90;;
46613;SDS011;32338;50.430;6.806;2022-08-19T06:50:12;87.13;;;47.03;;
46613;SDS011;32338;50.430;6.806;2022-08-19T06:52:39;75.18;;;41.47;;
46613;SDS011;32338;50.430;6.806;2022-08-19T06:55:06;73.40;;;41.90;;
46613;SDS011;32338;50.430;6.806;2022-08-19T06:57:33;74.18;;;41.30;;
46613;SDS011;32338;50.430;6.806;2022-08-19T07:00:00;74.85;;;40.63;;
46613;SDS011;32338;50.430;6.806;2022-08-19T07:02:28;77.45;;;41.70;;
46613;SDS011;32338;50.430;6.806;2022-08-19T07:04:55;71.38;;;39.58;;
46613;SDS011;32338;50.430;6.806;2022-08-19T07:07:23;73.50;;;40.35;;
46613;SDS011;32338;50.430;6.806;2022-08-19T07:09:50;69.47;;;37.35;;
46613;SDS011;32338;50.430;6.806;2022-08-19T07:12:18;70.88;;;38.92;;
46613;SDS011;32338;50.430;6.806;2022-08-19T07:14:44;65.72;;;37.15;;
46613;SDS011;32338;50.430;6.806;2022-08-19T07:17:13;66.90;;;36.92;;
46613;SDS011;32338;50.430;6.806;2022-08-19T07:19:42;67.05;;;36.00;;
46613;SDS011;32338;50.430;6.806;2022-08-19T07:22:09;65.95;;;36.63;;
46613;SDS011;32338;50.430;6.806;2022-08-19T07:24:35;69.22;;;37.20;;
46613;SDS011;32338;50.430;6.806;2022-08-19T07:27:04;59.88;;;32.17;;
46613;SDS011;32338;50.430;6.806;2022-08-19T07:29:34;55.38;;;31.45;;
46613;SDS011;32338;50.430;6.806;2022-08-19T07:32:03;58.40;;;33.28;;
46613;SDS011;32338;50.430;6.806;2022-08-19T07:34:31;64.78;;;34.47;;
46613;SDS011;32338;50.430;6.806;2022-08-19T07:37:04;58.03;;;32.38;;
46613;SDS011;32338;50.430;6.806;2022-08-19T07:39:32;47.72;;;29.65;;
46613;SDS011;32338;50.430;6.806;2022-08-19T07:42:03;52.83;;;29.08;;
46613;SDS011;32338;50.430;6.806;2022-08-19T07:44:32;47.53;;;29.38;;
46613;SDS011;32338;50.430;6.806;2022-08-19T07:46:59;49.67;;;28.27;;
46613;SDS011;32338;50.430;6.806;2022-08-19T07:49:27;41.15;;;26.42;;
46613;SDS011;32338;50.430;6.806;2022-08-19T07:51:54;44.25;;;24.85;;
46613;SDS011;32338;50.430;6.806;2022-08-19T07:54:26;40.20;;;24.23;;
46613;SDS011;32338;50.430;6.806;2022-08-19T07:56:53;40.65;;;24.40;;
46613;SDS011;32338;50.430;6.806;2022-08-19T07:59:21;29.67;;;18.58;;
46613;SDS011;32338;50.430;6.806;2022-08-19T08:01:49;31.92;;;20.85;;
46613;SDS011;32338;50.430;6.806;2022-08-19T08:04:16;38.03;;;24.48;;
46613;SDS011;32338;50.430;6.806;2022-08-19T08:07:01;32.40;;;21.55;;
46613;SDS011;32338;50.430;6.806;2022-08-19T08:09:46;30.85;;;20.65;;
46613;SDS011;32338;50.430;6.806;2022-08-19T08:12:14;28.40;;;18.70;;
46613;SDS011;32338;50.430;6.806;2022-08-19T08:14:44;32.63;;;19.67;;
46613;SDS011;32338;50.430;6.806;2022-08-19T08:17:12;25.55;;;18.38;;
46613;SDS011;32338;50.430;6.806;2022-08-19T08:19:40;28.50;;;20.83;;
46613;SDS011;32338;50.430;6.806;2022-08-19T08:22:07;23.67;;;18.15;;
46613;SDS011;32338;50.430;6.806;2022-08-19T08:24:59;29.80;;;18.70;;
46613;SDS011;32338;50.430;6.806;2022-08-19T08:27:28;26.45;;;18.15;;
46613;SDS011;32338;50.430;6.806;2022-08-19T08:29:56;23.08;;;17.27;;
46613;SDS011;32338;50.430;6.806;2022-08-19T08:32:22;21.83;;;16.23;;
46613;SDS011;32338;50.430;6.806;2022-08-19T08:34:49;24.30;;;17.85;;
46613;SDS011;32338;50.430;6.806;2022-08-19T08:37:16;18.00;;;13.82;;
46613;SDS011;32338;50.430;6.806;2022-08-19T08:39:42;17.80;;;14.52;;
46613;SDS011;32338;50.430;6.806;2022-08-19T08:42:11;18.17;;;13.45;;
46613;SDS011;32338;50.430;6.806;2022-08-19T08:44:46;19.17;;;15.52;;
46613;SDS011;32338;50.430;6.806;2022-08-19T08:47:18;24.85;;;15.93;;
46613;SDS011;32338;50.430;6.806;2022-08-19T08:49:48;18.35;;;13.90;;
46613;SDS011;32338;50.430;6.806;2022-08-19T08:52:19;18.85;;;14.80;;
46613;SDS011;32338;50.430;6.806;2022-08-19T08:54:50;14.40;;;12.95;;
46613;SDS011;32338;50.430;6.806;2022-08-19T08:57:23;16.17;;;12.88;;
46613;SDS011;32338;50.430;6.806;2022-08-19T08:59:54;16.10;;;13.75;;
46613;SDS011;32338;50.430;6.806;2022-08-19T09:02:23;14.70;;;12.02;;
46613;SDS011;32338;50.430;6.806;2022-08-19T09:04:50;16.70;;;11.73;;
46613;SDS011;32338;50.430;6.806;2022-08-19T09:07:23;12.07;;;10.77;;
46613;SDS011;32338;50.430;6.806;2022-08-19T09:10:02;14.82;;;12.70;;
46613;SDS011;32338;50.430;6.806;2022-08-19T09:12:37;13.18;;;10.57;;
46613;SDS011;32338;50.430;6.806;2022-08-19T09:15:15;12.50;;;10.20;;
46613;SDS011;32338;50.430;6.806;2022-08-19T09:17:44;14.15;;;10.40;;
46613;SDS011;32338;50.430;6.806;2022-08-19T09:20:14;11.57;;;8.70;;
46613;SDS011;32338;50.430;6.806;2022-08-19T09:22:43;18.10;;;12.88;;
46613;SDS011;32338;50.430;6.806;2022-08-19T09:25:12;14.68;;;12.77;;
46613;SDS011;32338;50.430;6.806;2022-08-19T09:27:42;14.27;;;11.43;;
46613;SDS011;32338;50.430;6.806;2022-08-19T09:30:11;15.27;;;12.68;;
46613;SDS011;32338;50.430;6.806;2022-08-19T09:32:41;14.18;;;10.13;;
46613;SDS011;32338;50.430;6.806;2022-08-19T09:35:08;11.32;;;10.23;;
46613;SDS011;32338;50.430;6.806;2022-08-19T09:37:35;10.70;;;9.63;;
46613;SDS011;32338;50.430;6.806;2022-08-19T09:40:02;8.55;;;7.72;;
46613;SDS011;32338;50.430;6.806;2022-08-19T09:42:31;6.45;;;5.70;;
46613;SDS011;32338;50.430;6.806;2022-08-19T09:45:00;6.60;;;6.10;;
46613;SDS011;32338;50.430;6.806;2022-08-19T09:47:27;8.85;;;7.97;;
46613;SDS011;32338;50.430;6.806;2022-08-19T09:49:53;9.45;;;6.82;;
46613;SDS011;32338;50.430;6.806;2022-08-19T09:52:20;7.38;;;6.70;;
46613;SDS011;32338;50.430;6.806;2022-08-19T09:54:47;14.35;;;8.95;;
46613;SDS011;32338;50.430;6.806;2022-08-19T09:57:13;7.90;;;7.22;;
46613;SDS011;32338;50.430;6.806;2022-08-19T09:59:40;12.30;;;10.98;;
46613;SDS011;32338;50.430;6.806;2022-08-19T10:02:09;9.35;;;8.43;;
46613;SDS011;32338;50.430;6.806;2022-08-19T10:04:35;10.32;;;9.02;;
46613;SDS011;32338;50.430;6.806;2022-08-19T10:07:29;7.63;;;6.72;;
46613;SDS011;32338;50.430;6.806;2022-08-19T10:09:55;9.55;;;8.70;;
46613;SDS011;32338;50.430;6.806;2022-08-19T10:12:22;7.65;;;7.15;;
46613;SDS011;32338;50.430;6.806;2022-08-19T10:14:49;7.03;;;6.40;;
46613;SDS011;32338;50.430;6.806;2022-08-19T10:17:17;6.43;;;5.93;;
46613;SDS011;32338;50.430;6.806;2022-08-19T10:19:44;8.98;;;8.07;;
46613;SDS011;32338;50.430;6.806;2022-08-19T10:22:11;10.27;;;6.20;;
46613;SDS011;32338;50.430;6.806;2022-08-19T10:24:39;7.95;;;7.18;;
46613;SDS011;32338;50.430;6.806;2022-08-19T10:27:06;9.20;;;7.45;;
46613;SDS011;32338;50.430;6.806;2022-08-19T10:29:32;7.53;;;6.93;;
46613;SDS011;32338;50.430;6.806;2022-08-19T10:32:01;8.18;;;7.38;;
46613;SDS011;32338;50.430;6.806;2022-08-19T10:34:31;9.85;;;7.72;;
46613;SDS011;32338;50.430;6.806;2022-08-19T10:36:58;8.10;;;7.40;;
46613;SDS011;32338;50.430;6.806;2022-08-19T10:39:26;7.28;;;6.53;;
46613;SDS011;32338;50.430;6.806;2022-08-19T10:41:54;7.00;;;6.47;;
46613;SDS011;32338;50.430;6.806;2022-08-19T10:44:22;8.23;;;7.03;;
46613;SDS011;32338;50.430;6.806;2022-08-19T10:46:49;9.02;;;7.07;;
46613;SDS011;32338;50.430;6.806;2022-08-19T10:49:17;8.10;;;7.40;;
46613;SDS011;32338;50.430;6.806;2022-08-19T10:51:47;9.27;;;8.10;;
46613;SDS011;32338;50.430;6.806;2022-08-19T10:54:31;8.60;;;7.18;;
46613;SDS011;32338;50.430;6.806;2022-08-19T10:57:13;7.65;;;6.95;;
46613;SDS011;32338;50.430;6.806;2022-08-19T10:59:40;8.20;;;7.57;;
46613;SDS011;32338;50.430;6.806;2022-08-19T11:02:08;7.97;;;7.38;;
46613;SDS011;32338;50.430;6.806;2022-08-19T11:04:37;8.43;;;7.60;;
46613;SDS011;32338;50.430;6.806;2022-08-19T11:07:07;9.48;;;7.55;;
46613;SDS011;32338;50.430;6.806;2022-08-19T11:09:36;7.95;;;7.35;;
46613;SDS011;32338;50.430;6.806;2022-08-19T11:12:05;8.55;;;7.85;;
46613;SDS011;32338;50.430;6.806;2022-08-19T11:14:33;8.07;;;7.38;;
46613;SDS011;32338;50.430;6.806;2022-08-19T11:17:00;8.95;;;7.85;;
46613;SDS011;32338;50.430;6.806;2022-08-19T11:19:28;9.35;;;8.40;;
46613;SDS011;32338;50.430;6.806;2022-08-19T11:21:55;8.77;;;8.15;;
46613;SDS011;32338;50.430;6.806;2022-08-19T11:24:24;9.60;;;8.60;;
46613;SDS011;32338;50.430;6.806;2022-08-19T11:26:53;11.50;;;7.97;;
46613;SDS011;32338;50.430;6.806;2022-08-19T11:29:22;8.80;;;8.05;;
46613;SDS011;32338;50.430;6.806;2022-08-19T11:31:50;7.65;;;7.05;;
46613;SDS011;32338;50.430;6.806;2022-08-19T11:34:19;8.13;;;7.45;;
46613;SDS011;32338;50.430;6.806;2022-08-19T11:36:48;8.65;;;7.85;;
46613;SDS011;32338;50.430;6.806;2022-08-19T11:39:17;10.55;;;9.55;;
46613;SDS011;32338;50.430;6.806;2022-08-19T11:41:46;10.65;;;9.55;;
46613;SDS011;32338;50.430;6.806;2022-08-19T11:44:14;9.68;;;8.88;;
46613;SDS011;32338;50.430;6.806;2022-08-19T11:46:41;12.55;;;10.13;;
46613;SDS011;32338;50.430;6.806;2022-08-19T11:49:10;10.90;;;9.52;;
46613;SDS011;32338;50.430;6.806;2022-08-19T11:51:37;11.48;;;9.50;;
46613;SDS011;32338;50.430;6.806;2022-08-19T11:54:04;10.63;;;9.63;;
46613;SDS011;32338;50.430;6.806;2022-08-19T11:56:32;10.05;;;9.10;;
46613;SDS011;32338;50.430;6.806;2022-08-19T11:59:00;11.27;;;9.18;;
46613;SDS011;32338;50.430;6.806;2022-08-19T12:01:27;10.85;;;9.32;;
46613;SDS011;32338;50.430;6.806;2022-08-19T12:03:54;9.63;;;8.75;;
46613;SDS011;32338;50.430;6.806;2022-08-19T12:06:23;9.07;;;8.07;;
46613;SDS011;32338;50.430;6.806;2022-08-19T12:08:53;8.60;;;7.90;;
46613;SDS011;32338;50.430;6.806;2022-08-19T12:11:21;10.55;;;8.02;;
46613;SDS011;32338;50.430;6.806;2022-08-19T12:13:49;8.75;;;8.00;;
46613;SDS011;32338;50.430;6.806;2022-08-19T12:16:18;13.63;;;10.60;;
46613;SDS011;32338;50.430;6.806;2022-08-19T12:18:47;12.60;;;10.20;;
46613;SDS011;32338;50.430;6.806;2022-08-19T12:21:16;11.07;;;9.70;;
46613;SDS011;32338;50.430;6.806;2022-08-19T12:23:46;10.75;;;9.73;;
46613;SDS011;32338;50.430;6.806;2022-08-19T12:26:13;11.45;;;9.57;;
46613;SDS011;32338;50.430;6.806;2022-08-19T12:28:40;12.20;;;10.70;;
46613;SDS011;32338;50.430;6.806;2022-08-19T12:31:07;14.18;;;10.85;;
46613;SDS011;32338;50.430;6.806;2022-08-19T12:33:38;11.63;;;10.57;;
46613;SDS011;32338;50.430;6.806;2022-08-19T12:36:06;10.35;;;9.43;;
46613;SDS011;32338;50.430;6.806;2022-08-19T12:38:35;10.35;;;9.40;;
46613;SDS011;32338;50.430;6.806;2022-08-19T12:41:03;10.38;;;9.48;;
46613;SDS011;32338;50.430;6.806;2022-08-19T12:43:31;9.48;;;8.63;;
46613;SDS011;32338;50.430;6.806;2022-08-19T12:45:59;9.50;;;8.38;;
46613;SDS011;32338;50.430;6.806;2022-08-19T12:48:26;9.13;;;8.20;;
46613;SDS011;32338;50.430;6.806;2022-08-19T12:50:54;9.55;;;8.32;;
46613;SDS011;32338;50.430;6.806;2022-08-19T12:53:21;9.90;;;8.98;;
46613;SDS011;32338;50.430;6.806;2022-08-19T12:55:53;7.18;;;6.63;;
46613;SDS011;32338;50.430;6.806;2022-08-19T12:58:21;6.35;;;5.75;;
46613;SDS011;32338;50.430;6.806;2022-08-19T13:00:48;5.38;;;4.97;;
46613;SDS011;32338;50.430;6.806;2022-08-19T13:03:15;6.13;;;4.90;;
46613;SDS011;32338;50.430;6.806;2022-08-19T13:05:41;4.68;;;4.28;;
46613;SDS011;32338;50.430;6.806;2022-08-19T13:08:09;4.43;;;4.13;;
46613;SDS011;32338;50.430;6.806;2022-08-19T13:10:36;5.03;;;4.30;;
46613;SDS011;32338;50.430;6.806;2022-08-19T13:13:04;5.13;;;4.22;;
46613;SDS011;32338;50.430;6.806;2022-08-19T13:15:33;3.85;;;3.55;;
46613;SDS011;32338;50.430;6.806;2022-08-19T13:18:01;4.60;;;4.20;;
46613;SDS011;32338;50.430;6.806;2022-08-19T13:20:28;4.57;;;4.20;;
46613;SDS011;32338;50.430;6.806;2022-08-19T13:22:55;4.10;;;3.90;;
46613;SDS011;32338;50.430;6.806;2022-08-19T13:25:23;3.75;;;3.45;;
46613;SDS011;32338;50.430;6.806;2022-08-19T13:27:51;4.13;;;3.83;;
46613;SDS011;32338;50.430;6.806;2022-08-19T13:30:20;4.13;;;3.83;;
46613;SDS011;32338;50.430;6.806;2022-08-19T13:33:04;4.72;;;4.32;;
46613;SDS011;32338;50.430;6.806;2022-08-19T13:35:39;5.85;;;4.50;;
46613;SDS011;32338;50.430;6.806;2022-08-19T13:38:07;5.43;;;5.03;;
46613;SDS011;32338;50.430;6.806;2022-08-19T13:40:36;5.57;;;5.18;;
46613;SDS011;32338;50.430;6.806;2022-08-19T13:43:04;4.57;;;4.18;;
46613;SDS011;32338;50.430;6.806;2022-08-19T13:45:32;5.47;;;5.07;;
46613;SDS011;32338;50.430;6.806;2022-08-19T13:48:00;5.45;;;5.05;;
46613;SDS011;32338;50.430;6.806;2022-08-19T13:50:32;6.40;;;5.93;;
46613;SDS011;32338;50.430;6.806;2022-08-19T13:53:00;6.28;;;5.68;;
46613;SDS011;32338;50.430;6.806;2022-08-19T13:55:27;6.10;;;5.70;;
46613;SDS011;32338;50.430;6.806;2022-08-19T13:57:55;6.28;;;5.85;;
46613;SDS011;32338;50.430;6.806;2022-08-19T14:00:23;6.82;;;6.25;;
46613;SDS011;32338;50.430;6.806;2022-08-19T14:02:52;6.03;;;5.53;;
46613;SDS011;32338;50.430;6.806;2022-08-19T14:05:20;6.00;;;5.43;;
46613;SDS011;32338;50.430;6.806;2022-08-19T14:07:47;6.10;;;5.70;;
46613;SDS011;32338;50.430;6.806;2022-08-19T14:10:15;5.50;;;5.10;;
46613;SDS011;32338;50.430;6.806;2022-08-19T14:12:43;6.57;;;5.53;;
46613;SDS011;32338;50.430;6.806;2022-08-19T14:15:13;5.55;;;5.15;;
46613;SDS011;32338;50.430;6.806;2022-08-19T14:17:42;5.57;;;4.80;;
46613;SDS011;32338;50.430;6.806;2022-08-19T14:20:11;5.85;;;5.35;;
46613;SDS011;32338;50.430;6.806;2022-08-19T14:22:41;9.30;;;5.40;;
46613;SDS011;32338;50.430;6.806;2022-08-19T14:25:10;4.93;;;4.38;;
46613;SDS011;32338;50.430;6.806;2022-08-19T14:27:39;4.95;;;4.55;;
46613;SDS011;32338;50.430;6.806;2022-08-19T14:30:07;4.25;;;3.90;;
46613;SDS011;32338;50.430;6.806;2022-08-19T14:32:36;4.80;;;4.35;;
46613;SDS011;32338;50.430;6.806;2022-08-19T14:35:04;4.32;;;4.00;;
46613;SDS011;32338;50.430;6.806;2022-08-19T14:37:32;4.80;;;4.32;;
46613;SDS011;32338;50.430;6.806;2022-08-19T14:39:59;4.10;;;3.80;;
46613;SDS011;32338;50.430;6.806;2022-08-19T14:42:26;4.00;;;3.70;;
46613;SDS011;32338;50.430;6.806;2022-08-19T14:44:53;4.22;;;3.92;;
46613;SDS011;32338;50.430;6.806;2022-08-19T14:47:23;4.20;;;3.95;;